Time;durP1;ratioP1;P1;durP2;ratioP2;P2;SDS_P1;SDS_P2;PMS_P1;PMS_P2;Temp;Humidity;BMP_temperature;BMP_pressure;BME280_temperature;BME280_humidity;BME280_pressure;Samples;Min_cycle;Max_cycle;Signal;HPM_P1;HPM_P2
2024/03/09 00:00:48;;;;;;;2.17;2.07;;;;;;;;;;6155340;23;20222;-89
2024/03/09 00:03:14;;;;;;;1.63;1.33;;;;;;;;;;6154569;23;20215;-89
2024/03/09 00:05:43;;;;;;;4.30;2.10;;;;;;;;;;6154379;23;20241;-89
2024/03/09 00:08:09;;;;;;;1.63;1.53;;;;;;;;;;6178953;23;20202;-88
2024/03/09 00:10:39;;;;;;;7.53;2.47;;;;;;;;;;6179009;23;20205;-88
2024/03/09 00:13:09;;;;;;;4.37;2.20;;;;;;;;;;6180171;23;20575;-88
2024/03/09 00:15:36;;;;;;;2.10;1.90;;;;;;;;;;6155018;23;20545;-88
2024/03/09 00:18:02;;;;;;;5.97;2.43;;;;;;;;;;6154324;23;20599;-88
2024/03/09 00:20:34;;;;;;;3.03;2.67;;;;;;;;;;6154775;23;20195;-88
2024/03/09 00:23:01;;;;;;;1.73;1.33;;;;;;;;;;6156011;23;20209;-89
2024/03/09 00:25:31;;;;;;;3.00;2.80;;;;;;;;;;6178886;23;20289;-88
2024/03/09 00:27:58;;;;;;;1.70;1.60;;;;;;;;;;6179798;23;20166;-89
2024/03/09 00:30:29;;;;;;;3.13;2.23;;;;;;;;;;6178980;23;20205;-88
2024/03/09 00:32:58;;;;;;;6.30;4.50;;;;;;;;;;6155575;23;20213;-89
2024/03/09 00:35:25;;;;;;;2.23;2.13;;;;;;;;;;6155058;23;20201;-88
2024/03/09 00:37:52;;;;;;;1.70;1.53;;;;;;;;;;6154268;23;20225;-89
2024/03/09 00:40:18;;;;;;;2.50;2.27;;;;;;;;;;6178897;23;20166;-88
2024/03/09 00:42:47;;;;;;;5.00;3.57;;;;;;;;;;6180265;23;20242;-88
2024/03/09 00:45:18;;;;;;;2.80;2.57;;;;;;;;;;6177137;23;20787;-88
2024/03/09 00:47:46;;;;;;;3.13;2.53;;;;;;;;;;6155443;23;20237;-89
2024/03/09 00:50:15;;;;;;;3.87;3.57;;;;;;;;;;6154735;23;20201;-88
2024/03/09 00:52:42;;;;;;;1.70;1.60;;;;;;;;;;6154695;23;20201;-88
2024/03/09 00:55:14;;;;;;;2.67;2.53;;;;;;;;;;6179680;23;20175;-88
2024/03/09 00:57:44;;;;;;;2.90;1.93;;;;;;;;;;6155401;23;20733;-88
2024/03/09 01:00:11;;;;;;;2.90;2.70;;;;;;;;;;6154359;23;20693;-88
2024/03/09 01:02:41;;;;;;;2.63;2.53;;;;;;;;;;6178848;23;20257;-88
2024/03/09 01:05:08;;;;;;;6.30;3.27;;;;;;;;;;6154181;23;20679;-88
2024/03/09 01:07:35;;;;;;;4.93;4.53;;;;;;;;;;6154504;23;20171;-88
2024/03/09 01:10:01;;;;;;;1.90;1.87;;;;;;;;;;6157235;23;20668;-89
2024/03/09 01:12:28;;;;;;;4.23;3.10;;;;;;;;;;6156372;23;20299;-88
2024/03/09 01:14:55;;;;;;;1.43;1.43;;;;;;;;;;6156083;23;20621;-88
2024/03/09 01:17:21;;;;;;;2.33;1.97;;;;;;;;;;6155769;23;20202;-89
2024/03/09 01:19:48;;;;;;;2.57;2.20;;;;;;;;;;6156229;23;20599;-88
2024/03/09 01:22:14;;;;;;;1.77;1.50;;;;;;;;;;6155973;23;20205;-89
2024/03/09 01:24:40;;;;;;;5.73;2.83;;;;;;;;;;6180669;23;20273;-89
2024/03/09 01:27:07;;;;;;;2.77;2.50;;;;;;;;;;6155708;23;20206;-88
2024/03/09 01:29:33;;;;;;;0.80;0.80;;;;;;;;;;6180375;23;20202;-89
2024/03/09 01:32:04;;;;;;;2.77;2.57;;;;;;;;;;6180819;23;20202;-88
2024/03/09 01:34:30;;;;;;;2.57;1.47;;;;;;;;;;6156702;23;20174;-89
2024/03/09 01:36:56;;;;;;;2.10;1.97;;;;;;;;;;6180977;23;20265;-89
2024/03/09 01:39:23;;;;;;;3.20;1.40;;;;;;;;;;6180526;23;20210;-88
2024/03/09 01:41:52;;;;;;;1.40;1.30;;;;;;;;;;6180959;23;20206;-88
2024/03/09 01:44:21;;;;;;;2.80;2.53;;;;;;;;;;6180126;23;20305;-88
2024/03/09 01:46:49;;;;;;;2.03;1.97;;;;;;;;;;6155768;23;20206;-90
2024/03/09 01:49:16;;;;;;;1.33;1.23;;;;;;;;;;6181027;23;20182;-88
2024/03/09 01:51:46;;;;;;;1.00;1.00;;;;;;;;;;6180364;23;20227;-88
2024/03/09 01:54:19;;;;;;;3.17;2.97;;;;;;;;;;6180200;23;20206;-89
2024/03/09 01:56:48;;;;;;;2.60;1.70;;;;;;;;;;6157026;23;20285;-88
2024/03/09 01:59:15;;;;;;;0.73;0.73;;;;;;;;;;6179914;23;20230;-89
2024/03/09 02:01:42;;;;;;;1.37;1.20;;;;;;;;;;6179692;23;20202;-88
2024/03/09 02:04:09;;;;;;;3.00;2.73;;;;;;;;;;6180626;23;20530;-89
2024/03/09 02:06:35;;;;;;;2.27;2.03;;;;;;;;;;6180536;23;20234;-88
2024/03/09 02:09:07;;;;;;;1.50;1.50;;;;;;;;;;6155356;23;20221;-88
2024/03/09 02:11:37;;;;;;;5.60;3.70;;;;;;;;;;6156737;23;20610;-88
2024/03/09 02:14:06;;;;;;;2.20;1.67;;;;;;;;;;6180878;23;20205;-88
2024/03/09 02:16:32;;;;;;;5.13;1.40;;;;;;;;;;6155320;23;20182;-88
2024/03/09 02:19:00;;;;;;;5.37;3.50;;;;;;;;;;6180142;23;20171;-89
2024/03/09 02:21:27;;;;;;;2.53;2.33;;;;;;;;;;6155715;23;20221;-88
2024/03/09 02:23:57;;;;;;;1.30;1.30;;;;;;;;;;6179544;23;20292;-88
2024/03/09 02:26:27;;;;;;;9.17;2.07;;;;;;;;;;6166258;23;20215;-88
2024/03/09 02:28:57;;;;;;;2.10;2.00;;;;;;;;;;6155869;23;20206;-87
2024/03/09 02:31:25;;;;;;;2.27;2.17;;;;;;;;;;6155281;23;20255;-89
2024/03/09 02:33:52;;;;;;;2.33;2.23;;;;;;;;;;6180839;23;20198;-88
2024/03/09 02:36:29;;;;;;;7.33;2.77;;;;;;;;;;6180103;23;20735;-87
2024/03/09 02:38:55;;;;;;;3.13;1.60;;;;;;;;;;6179504;23;20206;-88
2024/03/09 02:41:24;;;;;;;1.17;1.07;;;;;;;;;;6179284;23;20249;-89
2024/03/09 02:43:50;;;;;;;1.53;1.50;;;;;;;;;;6179683;23;20250;-89
2024/03/09 02:46:16;;;;;;;3.17;1.30;;;;;;;;;;6180349;23;20207;-88
2024/03/09 02:48:46;;;;;;;2.03;1.87;;;;;;;;;;6180278;23;20197;-88
2024/03/09 02:51:13;;;;;;;4.30;2.70;;;;;;;;;;6154579;23;20281;-88
2024/03/09 02:53:40;;;;;;;5.10;3.03;;;;;;;;;;6155238;23;20210;-88
2024/03/09 02:56:07;;;;;;;4.13;2.83;;;;;;;;;;6154707;23;20232;-88
2024/03/09 02:58:34;;;;;;;2.00;1.90;;;;;;;;;;6155404;23;20171;-88
2024/03/09 03:01:00;;;;;;;1.00;1.00;;;;;;;;;;6155410;23;20209;-89
2024/03/09 03:06:11;;;;;;;1.00;1.00;;;;;;;;;;6179345;23;20222;-88
2024/03/09 03:08:37;;;;;;;3.23;1.40;;;;;;;;;;6179682;23;20211;-88
2024/03/09 03:11:03;;;;;;;0.97;0.97;;;;;;;;;;6154392;23;20289;-88
2024/03/09 03:13:29;;;;;;;3.07;1.70;;;;;;;;;;6181088;23;20178;-88
2024/03/09 03:15:55;;;;;;;1.97;1.87;;;;;;;;;;6156227;23;20167;-88
2024/03/09 03:18:22;;;;;;;1.23;1.23;;;;;;;;;;6179028;23;20203;-88
2024/03/09 03:20:48;;;;;;;5.93;2.17;;;;;;;;;;6154623;23;20207;-89
2024/03/09 03:23:14;;;;;;;1.10;1.10;;;;;;;;;;6178513;23;20202;-87
2024/03/09 03:25:40;;;;;;;12.10;1.90;;;;;;;;;;6154334;23;20268;-87
2024/03/09 03:28:07;;;;;;;1.30;1.30;;;;;;;;;;6155191;23;20499;-89
2024/03/09 03:30:36;;;;;;;1.73;1.63;;;;;;;;;;6179077;23;20660;-88
2024/03/09 03:33:03;;;;;;;1.80;1.47;;;;;;;;;;6178605;23;20213;-90
2024/03/09 03:35:31;;;;;;;1.60;1.50;;;;;;;;;;6179057;23;20206;-89
2024/03/09 03:37:59;;;;;;;1.77;1.67;;;;;;;;;;6154592;23;20210;-88
2024/03/09 03:40:31;;;;;;;1.93;1.70;;;;;;;;;;6178969;23;20171;-89
2024/03/09 03:42:58;;;;;;;9.53;2.60;;;;;;;;;;6155413;23;20175;-89
2024/03/09 03:45:26;;;;;;;2.30;2.20;;;;;;;;;;6153891;23;20257;-87
2024/03/09 03:47:52;;;;;;;2.37;2.20;;;;;;;;;;6179064;23;20261;-88
2024/03/09 03:50:23;;;;;;;1.33;1.33;;;;;;;;;;6154740;23;20202;-88
2024/03/09 03:52:49;;;;;;;2.80;2.60;;;;;;;;;;6179299;23;20218;-86
2024/03/09 03:55:15;;;;;;;1.97;1.87;;;;;;;;;;6154886;23;20585;-88
2024/03/09 03:57:42;;;;;;;2.87;2.30;;;;;;;;;;6154088;23;20281;-88
2024/03/09 04:00:09;;;;;;;1.47;1.47;;;;;;;;;;6179091;23;20213;-88
2024/03/09 04:02:36;;;;;;;9.03;2.50;;;;;;;;;;6153522;23;20219;-88
2024/03/09 04:05:02;;;;;;;0.80;0.77;;;;;;;;;;6154448;23;20215;-88
2024/03/09 04:07:30;;;;;;;2.47;2.37;;;;;;;;;;6154688;23;20170;-87
2024/03/09 04:09:56;;;;;;;2.93;2.83;;;;;;;;;;6155124;23;20184;-87
2024/03/09 04:12:22;;;;;;;2.07;1.97;;;;;;;;;;6153702;23;20898;-88
2024/03/09 04:14:50;;;;;;;2.20;2.00;;;;;;;;;;6154117;23;20206;-88
2024/03/09 04:17:17;;;;;;;1.67;1.63;;;;;;;;;;6154578;23;20206;-88
2024/03/09 04:19:43;;;;;;;4.97;2.13;;;;;;;;;;6153891;23;20233;-87
2024/03/09 04:22:13;;;;;;;1.83;1.73;;;;;;;;;;6179527;23;20221;-88
2024/03/09 04:24:42;;;;;;;1.30;1.23;;;;;;;;;;6154851;23;20210;-88
2024/03/09 04:27:10;;;;;;;1.67;1.57;;;;;;;;;;6178134;23;20284;-88
2024/03/09 04:29:39;;;;;;;1.37;1.37;;;;;;;;;;6154456;23;20209;-87
2024/03/09 04:32:07;;;;;;;3.07;2.87;;;;;;;;;;6180220;23;20529;-88
2024/03/09 04:34:35;;;;;;;0.90;0.90;;;;;;;;;;6178605;23;20178;-88
2024/03/09 04:37:04;;;;;;;2.40;2.23;;;;;;;;;;6179348;23;20182;-87
2024/03/09 04:39:36;;;;;;;2.23;1.47;;;;;;;;;;6154829;23;20202;-88
2024/03/09 04:42:04;;;;;;;3.67;2.07;;;;;;;;;;6155054;23;20202;-87
2024/03/09 04:44:32;;;;;;;3.30;3.10;;;;;;;;;;6154547;23;20210;-88
2024/03/09 04:46:58;;;;;;;1.30;1.23;;;;;;;;;;6154297;23;20205;-88
2024/03/09 04:49:25;;;;;;;0.80;0.80;;;;;;;;;;6154394;23;20170;-87
2024/03/09 04:51:51;;;;;;;4.67;1.83;;;;;;;;;;6154514;23;20221;-88
2024/03/09 04:54:18;;;;;;;2.00;1.90;;;;;;;;;;6154307;23;20674;-89
2024/03/09 04:56:44;;;;;;;3.20;2.97;;;;;;;;;;6154089;23;20207;-87
2024/03/09 04:59:11;;;;;;;1.50;1.47;;;;;;;;;;6177869;23;20202;-88
2024/03/09 05:01:37;;;;;;;0.90;0.90;;;;;;;;;;6153547;23;20211;-88
2024/03/09 05:04:03;;;;;;;2.10;2.00;;;;;;;;;;6125450;23;20203;-87
2024/03/09 05:06:33;;;;;;;3.80;3.60;;;;;;;;;;6120929;23;20318;-87
2024/03/09 05:09:00;;;;;;;2.27;2.17;;;;;;;;;;6120147;23;20211;-87
2024/03/09 05:11:27;;;;;;;2.80;2.30;;;;;;;;;;6109553;23;20530;-88
2024/03/09 05:13:53;;;;;;;2.40;1.87;;;;;;;;;;6148888;23;20222;-87
2024/03/09 05:16:19;;;;;;;4.63;1.40;;;;;;;;;;6148416;23;20168;-87
2024/03/09 05:18:46;;;;;;;2.60;2.40;;;;;;;;;;6095811;23;20255;-89
2024/03/09 05:21:12;;;;;;;2.87;2.77;;;;;;;;;;6119446;23;20611;-89
2024/03/09 05:23:39;;;;;;;2.27;2.00;;;;;;;;;;6106625;23;20238;-89
2024/03/09 05:26:05;;;;;;;2.03;1.83;;;;;;;;;;6099235;23;20226;-88
2024/03/09 05:28:31;;;;;;;2.03;1.93;;;;;;;;;;6095095;23;20210;-88
2024/03/09 05:30:59;;;;;;;2.40;2.20;;;;;;;;;;6095168;23;20184;-88
2024/03/09 05:33:27;;;;;;;2.50;2.30;;;;;;;;;;6120906;23;20211;-88
2024/03/09 05:35:53;;;;;;;3.47;1.97;;;;;;;;;;6124735;23;20207;-87
2024/03/09 05:38:20;;;;;;;12.07;3.17;;;;;;;;;;6123893;23;20540;-87
2024/03/09 05:40:46;;;;;;;2.00;1.87;;;;;;;;;;6123940;23;20524;-88
2024/03/09 05:43:13;;;;;;;2.67;2.47;;;;;;;;;;6124537;23;20664;-88
2024/03/09 05:45:41;;;;;;;2.10;2.00;;;;;;;;;;6124102;23;20215;-87
2024/03/09 05:48:08;;;;;;;3.10;2.90;;;;;;;;;;6123314;23;20274;-87
2024/03/09 05:50:36;;;;;;;4.40;2.40;;;;;;;;;;6132403;23;20246;-88
2024/03/09 05:53:04;;;;;;;1.20;1.10;;;;;;;;;;6119391;23;20238;-89
2024/03/09 05:55:30;;;;;;;1.50;1.50;;;;;;;;;;6119987;23;20606;-87
2024/03/09 05:57:57;;;;;;;1.63;1.53;;;;;;;;;;6120944;23;20211;-87
2024/03/09 06:00:27;;;;;;;2.97;2.77;;;;;;;;;;6116078;23;20243;-88
2024/03/09 06:02:54;;;;;;;1.33;1.33;;;;;;;;;;6095852;23;20220;-88
2024/03/09 06:05:21;;;;;;;0.93;0.93;;;;;;;;;;6133245;23;20551;-87
2024/03/09 06:07:48;;;;;;;5.23;4.93;;;;;;;;;;6126238;23;20218;-87
2024/03/09 06:10:17;;;;;;;2.57;2.37;;;;;;;;;;6150894;23;20205;-88
2024/03/09 06:12:52;;;;;;;5.07;2.97;;;;;;;;;;6150566;23;20202;-87
2024/03/09 06:15:19;;;;;;;3.70;3.43;;;;;;;;;;6116877;23;20219;-88
2024/03/09 06:17:52;;;;;;;1.73;1.63;;;;;;;;;;6151633;23;20672;-87
2024/03/09 06:20:18;;;;;;;1.87;1.77;;;;;;;;;;6150176;23;20623;-88
2024/03/09 06:22:45;;;;;;;6.13;2.47;;;;;;;;;;6125733;23;20207;-87
2024/03/09 06:25:12;;;;;;;2.80;2.50;;;;;;;;;;6150738;23;20727;-88
2024/03/09 06:27:41;;;;;;;1.23;1.23;;;;;;;;;;6122657;23;20210;-88
2024/03/09 06:30:08;;;;;;;1.63;1.63;;;;;;;;;;6143182;23;20207;-88
2024/03/09 06:32:35;;;;;;;2.57;2.37;;;;;;;;;;6125875;23;20234;-87
2024/03/09 06:35:03;;;;;;;3.37;3.17;;;;;;;;;;6140560;23;20309;-87
2024/03/09 06:37:29;;;;;;;2.23;2.13;;;;;;;;;;6144827;23;20186;-87
2024/03/09 06:39:55;;;;;;;3.40;3.20;;;;;;;;;;6121564;23;20645;-88
2024/03/09 06:42:21;;;;;;;2.60;2.40;;;;;;;;;;6116156;23;21044;-87
2024/03/09 06:44:48;;;;;;;2.90;1.90;;;;;;;;;;6120184;23;20211;-88
2024/03/09 06:47:15;;;;;;;16.70;7.50;;;;;;;;;;6120611;23;20533;-88
2024/03/09 06:49:42;;;;;;;2.47;2.27;;;;;;;;;;6125581;23;20207;-88
2024/03/09 06:52:11;;;;;;;1.20;1.13;;;;;;;;;;6150682;23;20171;-88
2024/03/09 06:54:38;;;;;;;1.47;1.37;;;;;;;;;;6125780;23;20211;-87
2024/03/09 06:57:05;;;;;;;1.70;1.60;;;;;;;;;;6127903;23;20665;-87
2024/03/09 06:59:32;;;;;;;4.00;2.10;;;;;;;;;;6144640;23;20609;-88
2024/03/09 07:01:59;;;;;;;1.83;1.77;;;;;;;;;;6108635;23;20574;-87
2024/03/09 07:04:28;;;;;;;2.40;2.30;;;;;;;;;;6128521;23;20166;-88
2024/03/09 07:06:56;;;;;;;2.80;2.60;;;;;;;;;;6126339;23;20178;-89
2024/03/09 07:09:22;;;;;;;1.53;1.33;;;;;;;;;;6121303;23;20199;-89
2024/03/09 07:11:51;;;;;;;2.50;2.30;;;;;;;;;;6124912;23;20289;-87
2024/03/09 07:14:18;;;;;;;9.33;3.10;;;;;;;;;;6150666;23;20302;-88
2024/03/09 07:17:02;;;;;;;1.80;1.63;;;;;;;;;;6101219;23;20175;-87
2024/03/09 07:19:28;;;;;;;3.97;3.73;;;;;;;;;;6103495;23;20489;-87
2024/03/09 07:21:57;;;;;;;2.57;2.47;;;;;;;;;;6155460;23;20171;-88
2024/03/09 07:24:29;;;;;;;2.03;1.93;;;;;;;;;;6150547;23;20203;-87
2024/03/09 07:27:04;;;;;;;2.53;2.43;;;;;;;;;;6177913;23;20257;-87
2024/03/09 07:29:34;;;;;;;1.20;1.20;;;;;;;;;;6131448;23;20876;-87
2024/03/09 07:32:02;;;;;;;5.13;2.13;;;;;;;;;;6155118;23;20209;-87
2024/03/09 07:34:34;;;;;;;3.10;2.93;;;;;;;;;;6179101;23;20151;-88
2024/03/09 07:37:00;;;;;;;2.23;2.13;;;;;;;;;;6155057;23;20173;-88
2024/03/09 07:39:30;;;;;;;6.43;2.83;;;;;;;;;;6178609;23;20210;-87
2024/03/09 07:41:59;;;;;;;2.20;1.73;;;;;;;;;;6178981;23;20622;-87
2024/03/09 07:44:25;;;;;;;2.07;1.97;;;;;;;;;;6154395;23;20194;-86
2024/03/09 07:46:55;;;;;;;4.20;2.97;;;;;;;;;;6153754;23;20195;-87
2024/03/09 07:49:22;;;;;;;4.67;4.30;;;;;;;;;;6155128;23;20178;-86
2024/03/09 07:51:48;;;;;;;2.70;2.50;;;;;;;;;;6155014;23;20250;-89
2024/03/09 07:54:15;;;;;;;4.33;3.97;;;;;;;;;;6178795;23;20209;-87
2024/03/09 07:56:41;;;;;;;3.00;2.80;;;;;;;;;;6153398;23;20209;-89
2024/03/09 07:59:07;;;;;;;3.13;2.97;;;;;;;;;;6153858;23;20238;-86
2024/03/09 08:01:38;;;;;;;2.20;1.90;;;;;;;;;;6153978;23;20620;-87
2024/03/09 08:04:04;;;;;;;4.93;3.70;;;;;;;;;;6155933;23;20190;-88
2024/03/09 08:06:31;;;;;;;5.77;3.20;;;;;;;;;;6178271;23;20222;-87
2024/03/09 08:08:57;;;;;;;3.50;2.63;;;;;;;;;;6177918;23;20237;-85
2024/03/09 08:11:23;;;;;;;4.10;3.03;;;;;;;;;;6178579;23;20199;-89
2024/03/09 08:13:50;;;;;;;4.17;3.80;;;;;;;;;;6153173;23;20237;-89
2024/03/09 08:16:19;;;;;;;11.97;3.73;;;;;;;;;;6178802;23;20671;-86
2024/03/09 08:18:46;;;;;;;6.60;3.20;;;;;;;;;;6178691;23;20205;-88
2024/03/09 08:21:13;;;;;;;5.10;3.97;;;;;;;;;;6153940;23;20238;-87
2024/03/09 08:23:42;;;;;;;6.77;3.97;;;;;;;;;;6153210;23;20547;-87
2024/03/09 08:26:09;;;;;;;3.27;3.03;;;;;;;;;;6153963;23;20260;-87
2024/03/09 08:28:35;;;;;;;3.27;3.07;;;;;;;;;;6152915;23;20181;-87
2024/03/09 08:31:03;;;;;;;4.17;3.73;;;;;;;;;;6153325;23;20548;-87
2024/03/09 08:33:30;;;;;;;2.50;2.30;;;;;;;;;;6152970;23;20861;-88
2024/03/09 08:35:58;;;;;;;4.30;3.97;;;;;;;;;;6177774;23;20547;-88
2024/03/09 08:38:24;;;;;;;5.97;4.57;;;;;;;;;;6153703;23;20203;-87
2024/03/09 08:40:52;;;;;;;15.17;5.03;;;;;;;;;;6152266;23;20205;-87
2024/03/09 08:43:19;;;;;;;3.37;3.17;;;;;;;;;;6178151;23;20178;-86
2024/03/09 08:45:48;;;;;;;5.03;2.50;;;;;;;;;;6177553;23;20202;-87
2024/03/09 08:48:14;;;;;;;4.80;4.43;;;;;;;;;;6153629;23;20206;-88
2024/03/09 08:50:40;;;;;;;4.03;3.73;;;;;;;;;;6153462;23;20222;-87
2024/03/09 08:53:06;;;;;;;6.27;4.57;;;;;;;;;;6153617;23;20710;-87
2024/03/09 08:55:32;;;;;;;4.27;4.07;;;;;;;;;;6153840;23;20716;-88
2024/03/09 08:58:01;;;;;;;5.03;3.67;;;;;;;;;;6178364;23;20600;-86
2024/03/09 09:00:27;;;;;;;2.60;2.40;;;;;;;;;;6177581;23;20247;-88
2024/03/09 09:02:56;;;;;;;2.50;2.33;;;;;;;;;;6153069;23;20219;-88
2024/03/09 09:05:22;;;;;;;3.67;3.37;;;;;;;;;;6177882;23;20301;-85
2024/03/09 09:07:48;;;;;;;6.70;4.00;;;;;;;;;;6153337;23;20714;-87
2024/03/09 09:10:15;;;;;;;5.10;4.60;;;;;;;;;;6154337;23;20177;-86
2024/03/09 09:12:42;;;;;;;5.27;3.27;;;;;;;;;;6177302;23;20252;-86
2024/03/09 09:15:08;;;;;;;4.13;3.73;;;;;;;;;;6153282;23;20293;-87
2024/03/09 09:17:35;;;;;;;2.37;1.67;;;;;;;;;;6152751;23;20211;-87
2024/03/09 09:20:01;;;;;;;1.10;1.07;;;;;;;;;;6178338;23;20273;-86
2024/03/09 09:22:27;;;;;;;2.27;2.17;;;;;;;;;;6153415;23;20175;-88
2024/03/09 09:24:54;;;;;;;2.90;2.13;;;;;;;;;;6178914;23;20535;-88
2024/03/09 09:27:26;;;;;;;3.00;2.57;;;;;;;;;;6153738;23;21163;-87
2024/03/09 09:29:53;;;;;;;4.20;3.07;;;;;;;;;;6178411;23;20686;-88
2024/03/09 09:32:19;;;;;;;2.17;1.97;;;;;;;;;;6179857;23;20234;-88
2024/03/09 09:34:45;;;;;;;5.30;3.03;;;;;;;;;;6180388;23;20656;-88
2024/03/09 09:37:12;;;;;;;3.93;3.63;;;;;;;;;;6156061;23;20198;-88
2024/03/09 09:39:39;;;;;;;5.67;5.27;;;;;;;;;;6155287;23;20264;-87
2024/03/09 09:42:09;;;;;;;5.97;3.97;;;;;;;;;;6154975;23;20233;-90
2024/03/09 09:44:36;;;;;;;2.50;2.30;;;;;;;;;;6179270;23;20270;-89
2024/03/09 09:47:02;;;;;;;6.07;3.83;;;;;;;;;;6155953;23;20652;-89
2024/03/09 09:49:29;;;;;;;1.97;1.87;;;;;;;;;;6155443;23;20175;-88
2024/03/09 09:51:56;;;;;;;4.93;4.47;;;;;;;;;;6180825;23;20182;-87
2024/03/09 09:54:26;;;;;;;5.70;3.17;;;;;;;;;;6155081;23;20260;-88
2024/03/09 09:56:54;;;;;;;4.30;4.00;;;;;;;;;;6155481;23;20277;-88
2024/03/09 09:59:29;;;;;;;4.43;3.13;;;;;;;;;;6179138;23;20198;-88
2024/03/09 10:01:59;;;;;;;3.83;3.53;;;;;;;;;;6177659;23;20225;-88
2024/03/09 10:04:26;;;;;;;7.70;5.10;;;;;;;;;;6179362;23;20171;-88
2024/03/09 10:07:05;;;;;;;3.97;3.67;;;;;;;;;;6180217;23;20205;-89
2024/03/09 10:09:31;;;;;;;4.40;3.77;;;;;;;;;;6181349;23;20613;-89
2024/03/09 10:11:58;;;;;;;5.70;5.27;;;;;;;;;;6178643;23;20210;-88
2024/03/09 10:14:27;;;;;;;5.17;4.67;;;;;;;;;;6179617;23;20205;-87
2024/03/09 10:16:54;;;;;;;4.63;4.30;;;;;;;;;;6155128;23;20222;-88
2024/03/09 10:19:20;;;;;;;3.23;3.07;;;;;;;;;;6155384;23;20178;-88
2024/03/09 10:21:51;;;;;;;7.73;3.77;;;;;;;;;;6180469;23;20201;-88
2024/03/09 10:24:18;;;;;;;10.63;5.40;;;;;;;;;;6179633;23;20298;-88
2024/03/09 10:26:45;;;;;;;1.67;1.57;;;;;;;;;;6155045;23;20277;-89
2024/03/09 10:29:13;;;;;;;2.17;2.07;;;;;;;;;;6155139;23;20208;-90
2024/03/09 10:31:42;;;;;;;2.73;2.53;;;;;;;;;;6179388;23;20205;-90
2024/03/09 10:34:10;;;;;;;7.03;4.77;;;;;;;;;;6180140;23;20285;-89
2024/03/09 10:36:37;;;;;;;4.83;4.43;;;;;;;;;;6179736;23;20210;-88
2024/03/09 10:39:04;;;;;;;8.97;4.67;;;;;;;;;;6179139;23;20210;-89
2024/03/09 10:41:30;;;;;;;4.20;3.73;;;;;;;;;;6154623;23;20296;-89
2024/03/09 10:43:57;;;;;;;6.67;4.77;;;;;;;;;;6155361;23;20741;-88
2024/03/09 10:46:28;;;;;;;5.50;4.63;;;;;;;;;;6178827;23;20279;-90
2024/03/09 10:48:57;;;;;;;10.57;5.97;;;;;;;;;;6180227;23;20214;-90
2024/03/09 10:51:44;;;;;;;4.07;3.77;;;;;;;;;;6179290;23;20265;-88
2024/03/09 10:54:26;;;;;;;3.43;3.13;;;;;;;;;;6155462;23;20289;-89
2024/03/09 10:56:53;;;;;;;5.77;2.27;;;;;;;;;;6179208;23;20206;-89
2024/03/09 10:59:23;;;;;;;10.30;6.77;;;;;;;;;;6179053;23;20202;-88
2024/03/09 11:01:52;;;;;;;4.97;2.70;;;;;;;;;;6178868;23;20229;-89
2024/03/09 11:04:19;;;;;;;8.80;4.70;;;;;;;;;;6178892;23;20160;-88
2024/03/09 11:06:47;;;;;;;7.43;6.23;;;;;;;;;;6155899;23;20220;-89
2024/03/09 11:09:15;;;;;;;5.47;4.97;;;;;;;;;;6179185;23;20267;-88
2024/03/09 11:11:41;;;;;;;4.70;3.60;;;;;;;;;;6179486;23;20202;-88
2024/03/09 11:14:08;;;;;;;4.90;4.17;;;;;;;;;;6155015;23;20543;-88
2024/03/09 11:16:36;;;;;;;4.60;3.00;;;;;;;;;;6154129;23;20671;-88
2024/03/09 11:19:02;;;;;;;4.83;3.77;;;;;;;;;;6155669;23;20469;-88
2024/03/09 11:21:30;;;;;;;6.37;5.70;;;;;;;;;;6154530;23;20652;-88
2024/03/09 11:24:06;;;;;;;8.17;6.13;;;;;;;;;;6178627;23;20214;-89
2024/03/09 11:26:53;;;;;;;6.67;4.53;;;;;;;;;;6178933;23;20213;-89
2024/03/09 11:29:24;;;;;;;6.40;4.83;;;;;;;;;;6178598;23;20202;-88
2024/03/09 11:32:01;;;;;;;5.03;4.43;;;;;;;;;;6178532;23;20515;-87
2024/03/09 11:34:29;;;;;;;13.07;5.73;;;;;;;;;;6154613;23;20258;-90
2024/03/09 11:37:04;;;;;;;9.50;5.77;;;;;;;;;;6180315;23;20174;-88
2024/03/09 11:39:33;;;;;;;3.77;2.27;;;;;;;;;;6168029;23;21031;-88
2024/03/09 11:42:08;;;;;;;3.73;3.40;;;;;;;;;;6154151;23;20218;-89
2024/03/09 11:44:38;;;;;;;4.73;3.43;;;;;;;;;;6154886;23;20198;-88
2024/03/09 11:47:05;;;;;;;3.07;2.87;;;;;;;;;;6178850;23;20198;-88
2024/03/09 11:49:35;;;;;;;6.60;5.37;;;;;;;;;;6176660;23;20717;-88
2024/03/09 11:52:07;;;;;;;4.30;3.87;;;;;;;;;;6178691;23;20167;-88
2024/03/09 11:54:35;;;;;;;6.33;4.47;;;;;;;;;;6178388;23;20210;-90
2024/03/09 11:57:04;;;;;;;8.47;5.90;;;;;;;;;;6178626;23;20988;-89
2024/03/09 11:59:34;;;;;;;4.33;4.03;;;;;;;;;;6178301;23;20198;-91
2024/03/09 12:02:07;;;;;;;5.97;3.47;;;;;;;;;;6152238;23;20218;-89
2024/03/09 12:04:35;;;;;;;5.67;4.30;;;;;;;;;;6177432;23;20171;-88
2024/03/09 12:07:07;;;;;;;5.10;4.70;;;;;;;;;;6152747;23;20608;-88
2024/03/09 12:09:37;;;;;;;9.00;5.30;;;;;;;;;;6177067;23;20206;-89
2024/03/09 12:12:13;;;;;;;7.63;4.03;;;;;;;;;;6177308;23;20202;-89
2024/03/09 12:14:47;;;;;;;4.53;4.13;;;;;;;;;;6153750;23;20797;-90
2024/03/09 12:17:14;;;;;;;8.70;5.03;;;;;;;;;;6123983;23;20202;-88
2024/03/09 12:19:44;;;;;;;6.83;4.37;;;;;;;;;;6164500;23;20198;-88
2024/03/09 12:22:10;;;;;;;6.53;3.00;;;;;;;;;;6154484;23;20171;-87
2024/03/09 12:24:36;;;;;;;3.60;3.27;;;;;;;;;;6176903;23;20207;-89
2024/03/09 12:27:08;;;;;;;3.30;2.90;;;;;;;;;;6177453;23;20207;-88
2024/03/09 12:29:40;;;;;;;7.80;5.53;;;;;;;;;;6154645;23;20580;-89
2024/03/09 12:32:11;;;;;;;4.47;2.40;;;;;;;;;;6153140;23;20753;-89
2024/03/09 12:34:38;;;;;;;3.07;2.87;;;;;;;;;;6177765;23;20240;-87
2024/03/09 12:37:09;;;;;;;4.83;2.27;;;;;;;;;;6178269;23;20221;-88
2024/03/09 12:39:56;;;;;;;;;;;;;;;;;;;;;
2024/03/09 12:42:27;;;;;;;4.57;3.77;;;;;;;;;;6179080;23;20648;-89
2024/03/09 12:44:59;;;;;;;6.37;4.20;;;;;;;;;;6176720;23;20273;-90
2024/03/09 12:47:28;;;;;;;5.00;3.60;;;;;;;;;;6176727;23;20281;-90
2024/03/09 12:49:57;;;;;;;8.07;4.63;;;;;;;;;;6177183;23;20202;-89
2024/03/09 12:52:23;;;;;;;7.87;3.20;;;;;;;;;;6162905;23;20178;-89
2024/03/09 12:54:49;;;;;;;4.13;3.83;;;;;;;;;;6130709;23;20175;-88
2024/03/09 13:00:36;;;;;;;4.50;4.10;;;;;;;;;;6157729;23;20207;-89
2024/03/09 13:03:04;;;;;;;8.30;4.77;;;;;;;;;;6176020;23;20265;-89
2024/03/09 13:05:33;;;;;;;5.23;2.80;;;;;;;;;;6179129;23;20214;-89
2024/03/09 13:08:07;;;;;;;3.33;2.93;;;;;;;;;;6179216;23;20530;-89
2024/03/09 13:10:36;;;;;;;5.57;4.30;;;;;;;;;;6179324;23;20560;-89
2024/03/09 13:13:06;;;;;;;7.83;3.63;;;;;;;;;;6179911;23;20248;-89
2024/03/09 13:15:40;;;;;;;4.57;2.50;;;;;;;;;;6154560;23;20237;-89
2024/03/09 13:18:08;;;;;;;3.17;2.83;;;;;;;;;;6178754;23;20217;-89
2024/03/09 13:20:39;;;;;;;4.53;2.63;;;;;;;;;;6179470;23;20218;-89
2024/03/09 13:23:13;;;;;;;4.10;3.80;;;;;;;;;;6179138;23;20203;-89
2024/03/09 13:25:42;;;;;;;7.43;5.43;;;;;;;;;;6155516;23;20210;-89
2024/03/09 13:28:11;;;;;;;4.27;3.97;;;;;;;;;;6179795;23;20202;-88
2024/03/09 13:30:40;;;;;;;3.00;2.30;;;;;;;;;;6179155;23;20206;-87
2024/03/09 13:33:09;;;;;;;6.43;5.20;;;;;;;;;;6178924;23;20211;-87
2024/03/09 13:35:36;;;;;;;2.87;2.47;;;;;;;;;;6178590;23;20226;-88
2024/03/09 13:38:02;;;;;;;2.40;2.20;;;;;;;;;;6154927;23;20217;-88
2024/03/09 13:40:31;;;;;;;2.73;2.50;;;;;;;;;;6180320;23;20489;-88
2024/03/09 13:42:58;;;;;;;7.60;2.37;;;;;;;;;;6156574;23;20178;-87
2024/03/09 13:45:24;;;;;;;3.27;2.77;;;;;;;;;;6180911;23;20294;-89
2024/03/09 13:48:08;;;;;;;6.83;4.00;;;;;;;;;;6127192;23;20265;-88
2024/03/09 13:50:34;;;;;;;10.80;4.97;;;;;;;;;;6177837;23;20536;-87
2024/03/09 13:53:04;;;;;;;3.83;3.60;;;;;;;;;;6179729;23;20198;-89
2024/03/09 13:55:33;;;;;;;5.13;3.43;;;;;;;;;;6179674;23;20258;-89
2024/03/09 13:58:00;;;;;;;4.77;4.37;;;;;;;;;;6156107;23;20171;-87
2024/03/09 14:00:28;;;;;;;3.80;3.50;;;;;;;;;;6181254;23;20694;-89
2024/03/09 14:02:59;;;;;;;4.23;2.77;;;;;;;;;;6155620;23;20241;-88
2024/03/09 14:05:25;;;;;;;4.80;4.30;;;;;;;;;;6179166;23;20221;-90
2024/03/09 14:07:56;;;;;;;4.47;3.90;;;;;;;;;;6155271;23;20202;-88
2024/03/09 14:10:34;;;;;;;5.80;3.27;;;;;;;;;;6156630;23;20151;-88
2024/03/09 14:13:08;;;;;;;3.97;3.60;;;;;;;;;;6180846;23;20151;-87
2024/03/09 14:15:41;;;;;;;6.27;3.17;;;;;;;;;;6155346;23;20210;-89
2024/03/09 14:18:13;;;;;;;7.33;3.90;;;;;;;;;;6179400;23;20242;-88
2024/03/09 14:20:43;;;;;;;3.97;1.83;;;;;;;;;;6156275;23;20206;-89
2024/03/09 14:23:13;;;;;;;3.90;2.90;;;;;;;;;;6179732;23;20202;-88
2024/03/09 14:25:39;;;;;;;7.77;5.10;;;;;;;;;;6179357;23;20218;-90
2024/03/09 14:28:10;;;;;;;2.70;2.03;;;;;;;;;;6155889;23;20171;-88
2024/03/09 14:30:40;;;;;;;3.40;3.07;;;;;;;;;;6178835;23;20233;-89
2024/03/09 14:33:12;;;;;;;3.43;3.13;;;;;;;;;;6179397;23;20214;-89
2024/03/09 14:35:39;;;;;;;3.80;3.50;;;;;;;;;;6155804;23;20731;-90
2024/03/09 14:38:07;;;;;;;4.50;2.53;;;;;;;;;;6181034;23;20198;-87
2024/03/09 14:40:34;;;;;;;2.67;2.47;;;;;;;;;;6179684;23;20193;-88
2024/03/09 14:43:12;;;;;;;4.07;3.67;;;;;;;;;;6180468;23;20254;-89
2024/03/09 14:45:39;;;;;;;6.90;4.27;;;;;;;;;;6177940;23;20238;-87
2024/03/09 14:48:08;;;;;;;3.17;2.97;;;;;;;;;;6179197;23;20211;-88
2024/03/09 14:50:35;;;;;;;6.37;2.30;;;;;;;;;;6180130;23;20206;-88
2024/03/09 14:53:06;;;;;;;2.60;1.83;;;;;;;;;;6179451;23;20199;-88
2024/03/09 14:55:33;;;;;;;15.10;3.23;;;;;;;;;;6179341;23;20209;-90